Overview Statistics Trail Chart Weather Telemetry Raw packets
 

This is the latest recevied weather packets stored in our database for station/object 9M4GEK-3. If no packets are shown the sender has not sent any weather packets the latest 10 day(s).

<< 1 2 3 4 5 6 >>
Time Temp. Humidity Pressure Rain* Wind** Luminosity Snow
1788573814 37.78° C 43% 1013.1 hPa - - - -
1788573777 37.78° C 43% 1013.1 hPa - - - -
1788572878 36.11° C 46% 1012.8 hPa - - - -
1788572130 35.56° C 49% 1012.3 hPa - - - -
1788571978 40.56° C 39% 1012.5 hPa - - - -
1788571078 35.56° C 48% 1012.4 hPa - - - -
1788570178 35° C 49% 1012.5 hPa - - - -
1788569278 35.56° C 49% 1012.3 hPa - - - -
1788568378 35° C 51% 1012.2 hPa - - - -
1788567478 32.22° C 56% 1011.9 hPa - - - -
1788566578 30.56° C 60% 1011.7 hPa - - - -
1788565678 29.44° C 62% 1011.6 hPa - - - -
1788564777 28.89° C 63% 1011.4 hPa - - - -
1788563884 28.33° C 65% 1011.2 hPa - - - -
1788562979 28.33° C 66% 1011.1 hPa - - - -
1788562079 27.78° C 66% 1011 hPa - - - -
1788561177 28.33° C 66% 1010.9 hPa - - - -
1788560277 27.78° C 66% 1010.9 hPa - - - -
1788559377 28.33° C 65% 1010.8 hPa - - - -
1788558851 39.44° C 34% 1008.1 hPa - - - -
1788558472 28.33° C 64% 1010.7 hPa - - - -
1788557572 28.33° C 64% 1010.5 hPa - - - -
1788556672 28.33° C 63% 1010.3 hPa - - - -
1788555771 28.89° C 62% 1010.2 hPa - - - -
1788554871 29.44° C 61% 1010 hPa - - - -

* Rain since midnight (hover to see other rain measurements)
** Current wind speed in m/s (hover to see current wind gust speed)